Butts AAF (Fort Carson) Air Field Fort Carson US
ICAO: KFCS
IATA: FCS
Category: Medium
Scheduled Services: No

Elevation: 5838 ft
TransAlt. 18000 ft.

Airport Communications:
SPRINGS APP/DEP:124
FLT FLW:38.35
ATIS:108.8
PMSV METRO:44.1
PTD/OPS:141.15
TWR:125.5

KFCS Zoom In..

Runways:

(A) RW 04 length 2307 ft width 75 ft
---- / hdg 39

(B) RW 13 length 4572 ft width 75 ft
---- / hdg 126

(C) RW 22 length 2307 ft width 75 ft
---- / hdg 219

(D) RW 31 length 4572 ft width 75 ft
---- / hdg 306

Location; KFCS
Day. 16 / Time. 18.13 Zulu
* Altimeter: 30.30
* Temperature: 23° c. 73.4°f.
* Wind from: 110° Speed 09 kn.
Dewpoint: 17° c.
Visibility: 10 Statute Miles.
Clouds: Few 2200 ft.
Clouds: Broken 3000 ft.

KFCS 161813Z AUTO 11009KT 10SM FEW022 BKN030 23/17 A3030 RMK AO2 SLP206 $


Wind From 110°
Speed 09 kn.

 
 
jpsmedia.com for Web Design worldairports.se 2018   terms of use